sensor_id;sensor_type;location;lat;lon;timestamp;pressure;altitude;pressure_sealevel;temperature;humidity
41264;BME280;26998;48.714;9.414;2024-03-08T00:00:34;98794.69;;;3.23;75.99
41264;BME280;26998;48.714;9.414;2024-03-08T00:03:01;98794.06;;;3.21;75.34
41264;BME280;26998;48.714;9.414;2024-03-08T00:05:29;98783.13;;;3.18;74.80
41264;BME280;26998;48.714;9.414;2024-03-08T00:07:55;98784.22;;;3.23;74.96
41264;BME280;26998;48.714;9.414;2024-03-08T00:10:22;98771.25;;;3.15;74.63
41264;BME280;26998;48.714;9.414;2024-03-08T00:12:52;98782.16;;;3.19;74.85
41264;BME280;26998;48.714;9.414;2024-03-08T00:15:19;98786.19;;;3.21;75.51
41264;BME280;26998;48.714;9.414;2024-03-08T00:17:48;98759.69;;;3.10;74.63
41264;BME280;26998;48.714;9.414;2024-03-08T00:20:16;98743.22;;;2.95;74.71
41264;BME280;26998;48.714;9.414;2024-03-08T00:22:44;98750.88;;;2.96;75.08
41264;BME280;26998;48.714;9.414;2024-03-08T00:25:12;98757.78;;;3.04;75.13
41264;BME280;26998;48.714;9.414;2024-03-08T00:27:39;98759.69;;;2.95;75.00
41264;BME280;26998;48.714;9.414;2024-03-08T00:30:06;98764.66;;;3.05;74.80
41264;BME280;26998;48.714;9.414;2024-03-08T00:32:33;98773.06;;;3.00;75.84
41264;BME280;26998;48.714;9.414;2024-03-08T00:35:00;98743.47;;;2.85;75.15
41264;BME280;26998;48.714;9.414;2024-03-08T00:37:26;98749.22;;;2.95;74.97
41264;BME280;26998;48.714;9.414;2024-03-08T00:39:53;98715.50;;;2.86;74.37
41264;BME280;26998;48.714;9.414;2024-03-08T00:42:20;98750.75;;;3.04;74.97
41264;BME280;26998;48.714;9.414;2024-03-08T00:44:47;98720.13;;;2.84;75.00
41264;BME280;26998;48.714;9.414;2024-03-08T00:47:14;98735.25;;;3.03;74.71
41264;BME280;26998;48.714;9.414;2024-03-08T00:49:41;98732.03;;;2.86;74.70
41264;BME280;26998;48.714;9.414;2024-03-08T00:52:08;98745.91;;;3.01;75.01
41264;BME280;26998;48.714;9.414;2024-03-08T00:54:35;98746.97;;;3.07;74.99
41264;BME280;26998;48.714;9.414;2024-03-08T00:57:05;98741.63;;;3.00;74.66
41264;BME280;26998;48.714;9.414;2024-03-08T00:59:33;98743.28;;;3.01;74.82
41264;BME280;26998;48.714;9.414;2024-03-08T01:02:00;98740.78;;;2.93;74.70
41264;BME280;26998;48.714;9.414;2024-03-08T01:04:28;98741.03;;;2.98;74.86
41264;BME280;26998;48.714;9.414;2024-03-08T01:06:57;98706.97;;;2.77;74.86
41264;BME280;26998;48.714;9.414;2024-03-08T01:09:25;98721.00;;;2.91;75.65
41264;BME280;26998;48.714;9.414;2024-03-08T01:11:54;98734.56;;;2.80;75.48
41264;BME280;26998;48.714;9.414;2024-03-08T01:14:22;98725.66;;;2.74;76.32
41264;BME280;26998;48.714;9.414;2024-03-08T01:16:49;98727.88;;;2.77;75.47
41264;BME280;26998;48.714;9.414;2024-03-08T01:19:17;98681.56;;;2.57;74.39
41264;BME280;26998;48.714;9.414;2024-03-08T01:21:44;98730.41;;;2.85;74.97
41264;BME280;26998;48.714;9.414;2024-03-08T01:24:10;98704.53;;;2.76;74.62
41264;BME280;26998;48.714;9.414;2024-03-08T01:26:37;98718.69;;;2.81;74.40
41264;BME280;26998;48.714;9.414;2024-03-08T01:29:05;98719.94;;;2.85;74.25
41264;BME280;26998;48.714;9.414;2024-03-08T01:31:32;98705.41;;;2.83;74.78
41264;BME280;26998;48.714;9.414;2024-03-08T01:33:58;98687.81;;;2.77;74.54
41264;BME280;26998;48.714;9.414;2024-03-08T01:36:25;98704.34;;;2.77;74.78
41264;BME280;26998;48.714;9.414;2024-03-08T01:38:52;98705.50;;;2.75;74.16
41264;BME280;26998;48.714;9.414;2024-03-08T01:41:19;98692.97;;;2.70;74.09
41264;BME280;26998;48.714;9.414;2024-03-08T01:43:46;98678.13;;;2.56;74.40
41264;BME280;26998;48.714;9.414;2024-03-08T01:46:19;98689.72;;;2.68;73.40
41264;BME280;26998;48.714;9.414;2024-03-08T01:48:48;98655.03;;;2.45;74.11
41264;BME280;26998;48.714;9.414;2024-03-08T01:51:18;98692.25;;;2.76;73.73
41264;BME280;26998;48.714;9.414;2024-03-08T01:53:46;98693.16;;;2.69;73.57
41264;BME280;26998;48.714;9.414;2024-03-08T01:56:13;98642.69;;;2.39;74.31
41264;BME280;26998;48.714;9.414;2024-03-08T01:58:41;98673.25;;;2.53;73.97
41264;BME280;26998;48.714;9.414;2024-03-08T02:01:12;98657.13;;;2.50;73.98
41264;BME280;26998;48.714;9.414;2024-03-08T02:03:42;98663.69;;;2.60;73.71
41264;BME280;26998;48.714;9.414;2024-03-08T02:06:13;98655.59;;;2.41;74.48
41264;BME280;26998;48.714;9.414;2024-03-08T02:08:44;98657.94;;;2.35;74.51
41264;BME280;26998;48.714;9.414;2024-03-08T02:11:12;98628.84;;;2.24;74.27
41264;BME280;26998;48.714;9.414;2024-03-08T02:13:39;98609.63;;;2.17;73.90
41264;BME280;26998;48.714;9.414;2024-03-08T02:16:06;98640.09;;;2.39;74.13
41264;BME280;26998;48.714;9.414;2024-03-08T02:18:35;98627.47;;;2.28;73.96
41264;BME280;26998;48.714;9.414;2024-03-08T02:21:04;98646.13;;;2.40;74.11
41264;BME280;26998;48.714;9.414;2024-03-08T02:23:32;98621.69;;;2.32;73.57
41264;BME280;26998;48.714;9.414;2024-03-08T02:25:59;98618.00;;;2.27;74.01
41264;BME280;26998;48.714;9.414;2024-03-08T02:28:25;98637.09;;;2.42;73.92
41264;BME280;26998;48.714;9.414;2024-03-08T02:30:52;98600.28;;;2.22;73.45
41264;BME280;26998;48.714;9.414;2024-03-08T02:33:24;98642.13;;;2.44;74.15
41264;BME280;26998;48.714;9.414;2024-03-08T02:35:51;98597.03;;;2.20;73.30
41264;BME280;26998;48.714;9.414;2024-03-08T02:38:20;98604.03;;;2.20;73.41
41264;BME280;26998;48.714;9.414;2024-03-08T02:40:49;98609.53;;;2.25;73.97
41264;BME280;26998;48.714;9.414;2024-03-08T02:43:17;98624.66;;;2.44;73.60
41264;BME280;26998;48.714;9.414;2024-03-08T02:45:44;98628.63;;;2.40;74.30
41264;BME280;26998;48.714;9.414;2024-03-08T02:48:15;98615.75;;;2.24;74.71
41264;BME280;26998;48.714;9.414;2024-03-08T02:50:43;98616.94;;;2.21;74.19
41264;BME280;26998;48.714;9.414;2024-03-08T02:53:12;98611.88;;;2.20;74.76
41264;BME280;26998;48.714;9.414;2024-03-08T02:55:39;98593.25;;;2.08;73.96
41264;BME280;26998;48.714;9.414;2024-03-08T02:58:07;98623.88;;;2.29;74.63
41264;BME280;26998;48.714;9.414;2024-03-08T03:00:38;98561.25;;;1.92;74.07
41264;BME280;26998;48.714;9.414;2024-03-08T03:03:07;98614.31;;;2.21;74.31
41264;BME280;26998;48.714;9.414;2024-03-08T03:05:34;98613.41;;;2.14;75.07
41264;BME280;26998;48.714;9.414;2024-03-08T03:08:02;98615.25;;;2.14;75.33
41264;BME280;26998;48.714;9.414;2024-03-08T03:10:30;98616.47;;;2.18;75.31
41264;BME280;26998;48.714;9.414;2024-03-08T03:12:57;98607.66;;;2.19;75.46
41264;BME280;26998;48.714;9.414;2024-03-08T03:15:24;98569.66;;;1.87;75.55
41264;BME280;26998;48.714;9.414;2024-03-08T03:17:53;98569.09;;;1.77;75.54
41264;BME280;26998;48.714;9.414;2024-03-08T03:20:21;98595.66;;;1.95;75.75
41264;BME280;26998;48.714;9.414;2024-03-08T03:22:59;98600.38;;;2.00;75.79
41264;BME280;26998;48.714;9.414;2024-03-08T03:25:29;98608.72;;;1.95;75.87
41264;BME280;26998;48.714;9.414;2024-03-08T03:28:01;98602.16;;;1.99;76.20
41264;BME280;26998;48.714;9.414;2024-03-08T03:30:28;98575.06;;;1.86;75.57
41264;BME280;26998;48.714;9.414;2024-03-08T03:33:03;98594.97;;;2.01;75.81
41264;BME280;26998;48.714;9.414;2024-03-08T03:35:34;98596.84;;;1.93;75.91
41264;BME280;26998;48.714;9.414;2024-03-08T03:38:04;98597.75;;;2.00;76.34
41264;BME280;26998;48.714;9.414;2024-03-08T03:40:37;98587.38;;;1.92;76.42
41264;BME280;26998;48.714;9.414;2024-03-08T03:43:03;98592.34;;;1.87;76.21
41264;BME280;26998;48.714;9.414;2024-03-08T03:45:30;98558.91;;;1.68;76.15
41264;BME280;26998;48.714;9.414;2024-03-08T03:48:04;98580.09;;;1.87;76.57
41264;BME280;26998;48.714;9.414;2024-03-08T03:50:32;98561.91;;;1.79;75.83
41264;BME280;26998;48.714;9.414;2024-03-08T03:53:02;98544.88;;;1.69;76.19
41264;BME280;26998;48.714;9.414;2024-03-08T03:55:29;98576.13;;;1.91;76.12
41264;BME280;26998;48.714;9.414;2024-03-08T03:57:56;98571.44;;;1.87;76.37
41264;BME280;26998;48.714;9.414;2024-03-08T04:00:26;98584.22;;;1.82;76.52
41264;BME280;26998;48.714;9.414;2024-03-08T04:02:53;98580.91;;;1.88;76.33
41264;BME280;26998;48.714;9.414;2024-03-08T04:05:21;98566.31;;;1.79;76.33
41264;BME280;26998;48.714;9.414;2024-03-08T04:07:48;98578.38;;;1.80;76.53
41264;BME280;26998;48.714;9.414;2024-03-08T04:10:15;98567.38;;;1.70;76.47
41264;BME280;26998;48.714;9.414;2024-03-08T04:12:42;98586.56;;;1.77;76.63
41264;BME280;26998;48.714;9.414;2024-03-08T04:15:09;98523.34;;;1.38;77.13
41264;BME280;26998;48.714;9.414;2024-03-08T04:17:37;98574.34;;;1.77;76.73
41264;BME280;26998;48.714;9.414;2024-03-08T04:20:05;98574.53;;;1.76;76.42
41264;BME280;26998;48.714;9.414;2024-03-08T04:22:37;98586.56;;;1.77;76.58
41264;BME280;26998;48.714;9.414;2024-03-08T04:25:04;98560.88;;;1.66;76.43
41264;BME280;26998;48.714;9.414;2024-03-08T04:27:32;98575.03;;;1.57;77.29
41264;BME280;26998;48.714;9.414;2024-03-08T04:30:00;98538.56;;;1.34;77.21
41264;BME280;26998;48.714;9.414;2024-03-08T04:32:27;98567.22;;;1.57;77.58
41264;BME280;26998;48.714;9.414;2024-03-08T04:34:56;98543.78;;;1.49;77.28
41264;BME280;26998;48.714;9.414;2024-03-08T04:37:23;98548.38;;;1.61;76.69
41264;BME280;26998;48.714;9.414;2024-03-08T04:39:51;98558.47;;;1.64;77.76
41264;BME280;26998;48.714;9.414;2024-03-08T04:42:18;98539.38;;;1.49;77.57
41264;BME280;26998;48.714;9.414;2024-03-08T04:44:45;98562.16;;;1.70;77.17
41264;BME280;26998;48.714;9.414;2024-03-08T04:47:12;98527.84;;;1.44;77.58
41264;BME280;26998;48.714;9.414;2024-03-08T04:49:39;98534.44;;;1.40;77.59
41264;BME280;26998;48.714;9.414;2024-03-08T04:52:06;98542.06;;;1.56;77.37
41264;BME280;26998;48.714;9.414;2024-03-08T04:54:33;98512.69;;;1.25;78.14
41264;BME280;26998;48.714;9.414;2024-03-08T04:57:00;98509.06;;;1.11;78.19
41264;BME280;26998;48.714;9.414;2024-03-08T04:59:35;98516.94;;;1.26;78.24
41264;BME280;26998;48.714;9.414;2024-03-08T05:02:03;98547.56;;;1.61;77.84
41264;BME280;26998;48.714;9.414;2024-03-08T05:04:30;98540.72;;;1.45;78.04
41264;BME280;26998;48.714;9.414;2024-03-08T05:06:57;98517.50;;;1.36;78.32
41264;BME280;26998;48.714;9.414;2024-03-08T05:09:23;98529.56;;;1.51;78.46
41264;BME280;26998;48.714;9.414;2024-03-08T05:11:50;98508.47;;;1.38;77.39
41264;BME280;26998;48.714;9.414;2024-03-08T05:14:17;98528.47;;;1.46;78.00
41264;BME280;26998;48.714;9.414;2024-03-08T05:16:47;98537.41;;;1.51;77.81
41264;BME280;26998;48.714;9.414;2024-03-08T05:19:17;98527.31;;;1.48;77.89
41264;BME280;26998;48.714;9.414;2024-03-08T05:21:53;98514.59;;;1.31;78.54
41264;BME280;26998;48.714;9.414;2024-03-08T05:24:20;98506.31;;;1.42;77.75
41264;BME280;26998;48.714;9.414;2024-03-08T05:26:46;98503.44;;;1.37;77.85
41264;BME280;26998;48.714;9.414;2024-03-08T05:29:14;98529.81;;;1.42;78.43
41264;BME280;26998;48.714;9.414;2024-03-08T05:31:48;98522.06;;;1.34;78.67
41264;BME280;26998;48.714;9.414;2024-03-08T05:34:18;98533.16;;;1.50;78.65
41264;BME280;26998;48.714;9.414;2024-03-08T05:36:48;98534.25;;;1.41;78.52
41264;BME280;26998;48.714;9.414;2024-03-08T05:39:20;98517.56;;;1.42;78.58
41264;BME280;26998;48.714;9.414;2024-03-08T05:41:47;98514.97;;;1.42;78.24
41264;BME280;26998;48.714;9.414;2024-03-08T05:44:14;98521.97;;;1.42;78.63
41264;BME280;26998;48.714;9.414;2024-03-08T05:46:44;98510.28;;;1.38;78.49
41264;BME280;26998;48.714;9.414;2024-03-08T05:49:11;98516.16;;;1.40;79.20
41264;BME280;26998;48.714;9.414;2024-03-08T05:51:39;98519.56;;;1.40;78.43
41264;BME280;26998;48.714;9.414;2024-03-08T05:54:08;98508.06;;;1.35;79.13
41264;BME280;26998;48.714;9.414;2024-03-08T05:56:41;98500.38;;;1.48;78.07
41264;BME280;26998;48.714;9.414;2024-03-08T05:59:09;98504.97;;;1.31;78.58
41264;BME280;26998;48.714;9.414;2024-03-08T06:01:36;98490.38;;;1.37;78.26
41264;BME280;26998;48.714;9.414;2024-03-08T06:04:03;98512.63;;;1.47;78.54
41264;BME280;26998;48.714;9.414;2024-03-08T06:06:31;98480.41;;;1.26;78.18
41264;BME280;26998;48.714;9.414;2024-03-08T06:08:57;98479.66;;;1.32;78.56
41264;BME280;26998;48.714;9.414;2024-03-08T06:11:25;98484.34;;;1.22;79.00
41264;BME280;26998;48.714;9.414;2024-03-08T06:13:57;98517.31;;;1.52;79.06
41264;BME280;26998;48.714;9.414;2024-03-08T06:16:27;98498.78;;;1.47;78.34
41264;BME280;26998;48.714;9.414;2024-03-08T06:18:56;98502.91;;;1.56;77.94
41264;BME280;26998;48.714;9.414;2024-03-08T06:21:24;98510.03;;;1.62;77.86
41264;BME280;26998;48.714;9.414;2024-03-08T06:23:53;98522.63;;;1.87;77.38
41264;BME280;26998;48.714;9.414;2024-03-08T06:26:24;98513.50;;;1.83;77.42
41264;BME280;26998;48.714;9.414;2024-03-08T06:28:56;98534.31;;;2.06;76.82
41264;BME280;26998;48.714;9.414;2024-03-08T06:31:23;98520.53;;;1.97;76.43
41264;BME280;26998;48.714;9.414;2024-03-08T06:33:50;98495.31;;;1.90;76.51
41264;BME280;26998;48.714;9.414;2024-03-08T06:36:17;98517.72;;;1.99;76.70
41264;BME280;26998;48.714;9.414;2024-03-08T06:38:49;98541.63;;;2.31;76.20
41264;BME280;26998;48.714;9.414;2024-03-08T06:41:16;98522.56;;;2.16;76.33
41264;BME280;26998;48.714;9.414;2024-03-08T06:43:43;98542.50;;;2.53;74.43
41264;BME280;26998;48.714;9.414;2024-03-08T06:46:10;98531.78;;;2.48;74.42
41264;BME280;26998;48.714;9.414;2024-03-08T06:48:39;98540.94;;;2.59;74.95
41264;BME280;26998;48.714;9.414;2024-03-08T06:51:06;98531.06;;;2.61;75.15
41264;BME280;26998;48.714;9.414;2024-03-08T06:53:33;98505.75;;;2.61;74.83
41264;BME280;26998;48.714;9.414;2024-03-08T06:56:04;98525.13;;;2.67;73.95
41264;BME280;26998;48.714;9.414;2024-03-08T06:58:30;98514.81;;;2.44;73.81
41264;BME280;26998;48.714;9.414;2024-03-08T07:00:57;98529.59;;;2.73;74.43
41264;BME280;26998;48.714;9.414;2024-03-08T07:03:34;98527.53;;;2.89;73.43
41264;BME280;26998;48.714;9.414;2024-03-08T07:06:01;98502.25;;;2.75;73.08
41264;BME280;26998;48.714;9.414;2024-03-08T07:08:30;98503.25;;;2.74;74.28
41264;BME280;26998;48.714;9.414;2024-03-08T07:10:56;98519.13;;;2.94;73.90
41264;BME280;26998;48.714;9.414;2024-03-08T07:13:25;98496.09;;;2.83;73.25
41264;BME280;26998;48.714;9.414;2024-03-08T07:15:53;98524.84;;;3.31;73.06
41264;BME280;26998;48.714;9.414;2024-03-08T07:18:21;98503.91;;;3.04;72.79
41264;BME280;26998;48.714;9.414;2024-03-08T07:20:50;98454.66;;;2.86;73.04
41264;BME280;26998;48.714;9.414;2024-03-08T07:23:16;98489.00;;;3.32;72.21
41264;BME280;26998;48.714;9.414;2024-03-08T07:26:03;98444.56;;;2.83;71.82
41264;BME280;26998;48.714;9.414;2024-03-08T07:28:32;98475.94;;;2.83;73.25
41264;BME280;26998;48.714;9.414;2024-03-08T07:30:59;98511.38;;;3.34;71.88
41264;BME280;26998;48.714;9.414;2024-03-08T07:33:44;98464.38;;;3.26;70.48
41264;BME280;26998;48.714;9.414;2024-03-08T07:36:11;98511.66;;;3.46;71.38
41264;BME280;26998;48.714;9.414;2024-03-08T07:38:38;98510.00;;;3.38;71.59
41264;BME280;26998;48.714;9.414;2024-03-08T07:41:04;98480.03;;;3.13;71.73
41264;BME280;26998;48.714;9.414;2024-03-08T07:43:31;98486.25;;;3.12;71.66
41264;BME280;26998;48.714;9.414;2024-03-08T07:45:59;98470.50;;;3.06;71.69
41264;BME280;26998;48.714;9.414;2024-03-08T07:48:25;98511.84;;;3.44;71.47
41264;BME280;26998;48.714;9.414;2024-03-08T07:50:53;98504.00;;;3.44;71.61
41264;BME280;26998;48.714;9.414;2024-03-08T07:53:20;98470.38;;;3.14;72.49
41264;BME280;26998;48.714;9.414;2024-03-08T07:55:47;98489.38;;;3.29;72.18
41264;BME280;26998;48.714;9.414;2024-03-08T07:58:16;98478.13;;;3.35;71.69
41264;BME280;26998;48.714;9.414;2024-03-08T08:00:43;98504.69;;;3.60;71.56
41264;BME280;26998;48.714;9.414;2024-03-08T08:03:10;98497.84;;;3.24;72.22
41264;BME280;26998;48.714;9.414;2024-03-08T08:05:37;98468.78;;;3.19;72.29
41264;BME280;26998;48.714;9.414;2024-03-08T08:08:05;98507.31;;;3.60;71.43
41264;BME280;26998;48.714;9.414;2024-03-08T08:10:33;98496.66;;;3.68;71.25
41264;BME280;26998;48.714;9.414;2024-03-08T08:13:00;98473.44;;;3.58;71.48
41264;BME280;26998;48.714;9.414;2024-03-08T08:15:28;98476.91;;;3.65;71.03
41264;BME280;26998;48.714;9.414;2024-03-08T08:17:55;98465.56;;;3.51;70.33
41264;BME280;26998;48.714;9.414;2024-03-08T08:20:22;98491.53;;;3.87;70.84
41264;BME280;26998;48.714;9.414;2024-03-08T08:22:49;98485.41;;;3.74;70.31
41264;BME280;26998;48.714;9.414;2024-03-08T08:25:16;98491.91;;;3.84;70.59
41264;BME280;26998;48.714;9.414;2024-03-08T08:27:46;98431.94;;;3.62;70.42
41264;BME280;26998;48.714;9.414;2024-03-08T08:30:13;98461.72;;;3.54;71.58
41264;BME280;26998;48.714;9.414;2024-03-08T08:32:40;98479.13;;;3.68;70.57
41264;BME280;26998;48.714;9.414;2024-03-08T08:35:08;98476.06;;;3.58;71.18
41264;BME280;26998;48.714;9.414;2024-03-08T08:37:38;98466.75;;;3.90;70.32
41264;BME280;26998;48.714;9.414;2024-03-08T08:40:08;98474.94;;;3.74;70.37
41264;BME280;26998;48.714;9.414;2024-03-08T08:42:42;98468.91;;;3.80;70.38
41264;BME280;26998;48.714;9.414;2024-03-08T08:45:09;98470.72;;;3.79;70.21
41264;BME280;26998;48.714;9.414;2024-03-08T08:47:43;98464.25;;;3.75;70.51
41264;BME280;26998;48.714;9.414;2024-03-08T08:50:12;98448.97;;;3.85;69.92
41264;BME280;26998;48.714;9.414;2024-03-08T08:52:40;98467.41;;;4.11;70.22
41264;BME280;26998;48.714;9.414;2024-03-08T08:55:07;98439.72;;;3.89;70.06
41264;BME280;26998;48.714;9.414;2024-03-08T08:57:33;98463.53;;;3.94;70.66
41264;BME280;26998;48.714;9.414;2024-03-08T09:00:00;98465.50;;;3.86;69.79
41264;BME280;26998;48.714;9.414;2024-03-08T09:02:27;98450.63;;;3.93;69.74
41264;BME280;26998;48.714;9.414;2024-03-08T09:04:54;98459.53;;;3.98;69.92
41264;BME280;26998;48.714;9.414;2024-03-08T09:07:21;98463.31;;;3.96;70.44
41264;BME280;26998;48.714;9.414;2024-03-08T09:09:50;98460.78;;;4.22;69.21
41264;BME280;26998;48.714;9.414;2024-03-08T09:12:17;98438.53;;;3.92;70.08
41264;BME280;26998;48.714;9.414;2024-03-08T09:14:44;98420.00;;;4.00;69.30
41264;BME280;26998;48.714;9.414;2024-03-08T09:17:10;98450.63;;;3.99;68.98
41264;BME280;26998;48.714;9.414;2024-03-08T09:19:37;98433.88;;;3.94;69.24
41264;BME280;26998;48.714;9.414;2024-03-08T09:22:04;98449.94;;;4.31;67.62
41264;BME280;26998;48.714;9.414;2024-03-08T09:24:31;98464.25;;;4.29;68.55
41264;BME280;26998;48.714;9.414;2024-03-08T09:26:57;98430.72;;;4.18;67.78
41264;BME280;26998;48.714;9.414;2024-03-08T09:29:27;98435.75;;;4.13;68.92
41264;BME280;26998;48.714;9.414;2024-03-08T09:31:54;98430.34;;;4.34;67.97
41264;BME280;26998;48.714;9.414;2024-03-08T09:34:21;98409.53;;;4.13;67.71
41264;BME280;26998;48.714;9.414;2024-03-08T09:36:57;98385.31;;;3.98;67.84
41264;BME280;26998;48.714;9.414;2024-03-08T09:39:24;98443.91;;;4.63;67.60
41264;BME280;26998;48.714;9.414;2024-03-08T09:41:53;98382.69;;;4.11;67.15
41264;BME280;26998;48.714;9.414;2024-03-08T09:44:22;98434.00;;;4.39;68.10
41264;BME280;26998;48.714;9.414;2024-03-08T09:46:54;98407.75;;;4.52;67.55
41264;BME280;26998;48.714;9.414;2024-03-08T09:49:21;98433.41;;;4.57;67.67
41264;BME280;26998;48.714;9.414;2024-03-08T09:51:49;98396.66;;;4.50;67.70
41264;BME280;26998;48.714;9.414;2024-03-08T09:54:19;98390.81;;;4.68;66.29
41264;BME280;26998;48.714;9.414;2024-03-08T09:56:51;98435.44;;;4.88;67.00
41264;BME280;26998;48.714;9.414;2024-03-08T09:59:18;98395.25;;;4.81;65.87
41264;BME280;26998;48.714;9.414;2024-03-08T10:01:54;98405.13;;;4.85;65.99
41264;BME280;26998;48.714;9.414;2024-03-08T10:04:22;98428.13;;;5.22;64.84
41264;BME280;26998;48.714;9.414;2024-03-08T10:06:49;98422.69;;;5.11;65.21
41264;BME280;26998;48.714;9.414;2024-03-08T10:09:16;98410.34;;;5.11;65.07
41264;BME280;26998;48.714;9.414;2024-03-08T10:11:43;98388.66;;;5.42;64.36
41264;BME280;26998;48.714;9.414;2024-03-08T10:14:10;98400.59;;;5.38;63.87
41264;BME280;26998;48.714;9.414;2024-03-08T10:16:40;98416.00;;;5.28;64.72
41264;BME280;26998;48.714;9.414;2024-03-08T10:19:07;98373.00;;;5.16;64.61
41264;BME280;26998;48.714;9.414;2024-03-08T10:21:34;98393.28;;;5.53;64.12
41264;BME280;26998;48.714;9.414;2024-03-08T10:24:02;98406.59;;;5.58;64.40
41264;BME280;26998;48.714;9.414;2024-03-08T10:26:30;98363.84;;;5.25;64.69
41264;BME280;26998;48.714;9.414;2024-03-08T10:28:57;98379.69;;;5.05;64.67
41264;BME280;26998;48.714;9.414;2024-03-08T10:31:25;98373.50;;;5.50;63.83
41264;BME280;26998;48.714;9.414;2024-03-08T10:33:52;98381.00;;;5.91;63.18
41264;BME280;26998;48.714;9.414;2024-03-08T10:36:19;98343.81;;;5.88;61.19
41264;BME280;26998;48.714;9.414;2024-03-08T10:38:46;98359.94;;;5.53;62.80
41264;BME280;26998;48.714;9.414;2024-03-08T10:41:15;98367.91;;;5.78;62.68
41264;BME280;26998;48.714;9.414;2024-03-08T10:46:30;98352.78;;;6.05;60.79
41264;BME280;26998;48.714;9.414;2024-03-08T10:49:03;98355.19;;;6.37;60.68
41264;BME280;26998;48.714;9.414;2024-03-08T10:51:32;98349.66;;;6.70;60.30
41264;BME280;26998;48.714;9.414;2024-03-08T10:54:00;98370.75;;;6.14;61.30
41264;BME280;26998;48.714;9.414;2024-03-08T10:56:29;98383.53;;;6.42;60.92
41264;BME280;26998;48.714;9.414;2024-03-08T10:58:56;98343.13;;;6.54;60.37
41264;BME280;26998;48.714;9.414;2024-03-08T11:01:23;98367.88;;;7.32;57.77
41264;BME280;26998;48.714;9.414;2024-03-08T11:03:55;98380.16;;;7.20;57.28
41264;BME280;26998;48.714;9.414;2024-03-08T11:06:42;98339.50;;;7.16;58.17
41264;BME280;26998;48.714;9.414;2024-03-08T11:09:27;98352.41;;;6.81;59.02
41264;BME280;26998;48.714;9.414;2024-03-08T11:12:27;98337.41;;;7.54;58.03
41264;BME280;26998;48.714;9.414;2024-03-08T11:15:02;98328.28;;;7.02;58.48
41264;BME280;26998;48.714;9.414;2024-03-08T11:20:19;98351.66;;;7.83;56.33
41264;BME280;26998;48.714;9.414;2024-03-08T11:22:55;98315.09;;;7.02;58.12
41264;BME280;26998;48.714;9.414;2024-03-08T11:25:38;98351.06;;;6.48;60.36
41264;BME280;26998;48.714;9.414;2024-03-08T11:28:20;98329.03;;;6.42;60.77
41264;BME280;26998;48.714;9.414;2024-03-08T11:33:30;98343.06;;;7.22;60.37
41264;BME280;26998;48.714;9.414;2024-03-08T11:36:20;98339.41;;;7.23;59.55
41264;BME280;26998;48.714;9.414;2024-03-08T11:38:49;98322.47;;;7.48;57.80
41264;BME280;26998;48.714;9.414;2024-03-08T11:41:20;98329.38;;;7.31;58.86
41264;BME280;26998;48.714;9.414;2024-03-08T11:43:48;98296.13;;;7.30;57.48
41264;BME280;26998;48.714;9.414;2024-03-08T11:46:16;98285.56;;;7.48;58.18
41264;BME280;26998;48.714;9.414;2024-03-08T11:48:47;98281.00;;;7.26;57.55
41264;BME280;26998;48.714;9.414;2024-03-08T11:51:15;98273.41;;;7.77;58.39
41264;BME280;26998;48.714;9.414;2024-03-08T11:53:45;98248.41;;;8.32;55.60
41264;BME280;26998;48.714;9.414;2024-03-08T11:56:14;98300.75;;;8.70;54.00
41264;BME280;26998;48.714;9.414;2024-03-08T11:58:41;98302.03;;;8.44;53.69
41264;BME280;26998;48.714;9.414;2024-03-08T12:01:09;98301.63;;;8.17;56.19
41264;BME280;26998;48.714;9.414;2024-03-08T12:03:40;98288.25;;;8.01;57.06
41264;BME280;26998;48.714;9.414;2024-03-08T12:06:09;98289.41;;;8.46;56.93
41264;BME280;26998;48.714;9.414;2024-03-08T12:08:36;98254.00;;;8.82;54.28
41264;BME280;26998;48.714;9.414;2024-03-08T12:11:07;98273.72;;;8.21;55.65
41264;BME280;26998;48.714;9.414;2024-03-08T12:13:36;98237.78;;;7.97;56.34
41264;BME280;26998;48.714;9.414;2024-03-08T12:16:03;98259.53;;;8.34;56.11
41264;BME280;26998;48.714;9.414;2024-03-08T12:18:38;98264.72;;;8.29;55.32
41264;BME280;26998;48.714;9.414;2024-03-08T12:21:09;98223.03;;;8.43;55.38
41264;BME280;26998;48.714;9.414;2024-03-08T12:23:38;98255.53;;;8.55;55.53
41264;BME280;26998;48.714;9.414;2024-03-08T12:26:23;98230.94;;;8.77;55.56
41264;BME280;26998;48.714;9.414;2024-03-08T12:28:50;98258.47;;;8.93;54.03
41264;BME280;26998;48.714;9.414;2024-03-08T12:31:17;98259.78;;;8.56;54.12
41264;BME280;26998;48.714;9.414;2024-03-08T12:34:02;98244.50;;;8.58;55.68
41264;BME280;26998;48.714;9.414;2024-03-08T12:36:29;98244.97;;;8.78;55.57
41264;BME280;26998;48.714;9.414;2024-03-08T12:38:56;98217.44;;;8.28;54.90
41264;BME280;26998;48.714;9.414;2024-03-08T12:41:23;98240.59;;;8.72;54.89
41264;BME280;26998;48.714;9.414;2024-03-08T12:43:50;98236.91;;;8.84;55.50
41264;BME280;26998;48.714;9.414;2024-03-08T12:46:17;98230.72;;;8.67;54.26
41264;BME280;26998;48.714;9.414;2024-03-08T12:48:48;98237.16;;;8.60;54.43
41264;BME280;26998;48.714;9.414;2024-03-08T12:51:17;98209.16;;;8.36;56.34
41264;BME280;26998;48.714;9.414;2024-03-08T12:53:45;98198.44;;;8.77;55.83
41264;BME280;26998;48.714;9.414;2024-03-08T12:56:14;98202.06;;;8.99;53.81
41264;BME280;26998;48.714;9.414;2024-03-08T12:58:45;98221.28;;;9.22;54.04
41264;BME280;26998;48.714;9.414;2024-03-08T13:01:14;98209.75;;;9.00;53.73
41264;BME280;26998;48.714;9.414;2024-03-08T13:03:41;98141.25;;;8.71;53.29
41264;BME280;26998;48.714;9.414;2024-03-08T13:06:10;98190.31;;;8.55;54.76
41264;BME280;26998;48.714;9.414;2024-03-08T13:08:37;98192.97;;;8.55;54.77
41264;BME280;26998;48.714;9.414;2024-03-08T13:11:07;98151.13;;;8.75;54.13
41264;BME280;26998;48.714;9.414;2024-03-08T13:13:35;98183.53;;;9.39;52.41
41264;BME280;26998;48.714;9.414;2024-03-08T13:16:03;98165.75;;;9.06;53.14
41264;BME280;26998;48.714;9.414;2024-03-08T13:18:31;98151.97;;;9.04;54.54
41264;BME280;26998;48.714;9.414;2024-03-08T13:20:57;98158.44;;;9.13;52.53
41264;BME280;26998;48.714;9.414;2024-03-08T13:23:24;98165.50;;;9.07;53.80
41264;BME280;26998;48.714;9.414;2024-03-08T13:25:51;98176.50;;;9.61;52.82